createdAt,value
2022-11-20T00:02:15.249Z,6.99
2022-11-20T00:04:47.796Z,6.92
2022-11-20T00:07:16.896Z,6.87
2022-11-20T00:09:46.562Z,6.81
2022-11-20T00:12:16.011Z,6.74
2022-11-20T00:14:49.364Z,6.64
2022-11-20T00:17:18.565Z,6.53
2022-11-20T00:19:48.187Z,6.42
2022-11-20T00:22:17.987Z,6.32
2022-11-20T00:24:47.573Z,6.19
2022-11-20T00:27:16.946Z,6.07
2022-11-20T00:29:46.486Z,5.93
2022-11-20T00:32:15.965Z,5.84
2022-11-20T00:34:45.443Z,5.74
2022-11-20T00:37:14.675Z,5.65
2022-11-20T00:39:44.712Z,5.54
2022-11-20T00:42:14.248Z,5.44
2022-11-20T00:44:43.591Z,5.35
2022-11-20T00:47:13.431Z,5.26
2022-11-20T00:49:42.973Z,5.17
2022-11-20T00:52:12.144Z,5.08
2022-11-20T00:54:41.834Z,5.00
2022-11-20T00:57:11.097Z,4.91
2022-11-20T00:59:40.961Z,4.84
2022-11-20T01:02:10.779Z,4.77
2022-11-20T01:04:41.207Z,4.71
2022-11-20T01:07:10.524Z,4.64
2022-11-20T01:09:39.797Z,4.59
2022-11-20T01:12:09.259Z,4.52
2022-11-20T01:14:38.829Z,4.47
2022-11-20T01:17:11.522Z,4.41
2022-11-20T01:19:40.731Z,4.36
2022-11-20T01:22:10.205Z,4.32
2022-11-20T01:24:39.885Z,4.26
2022-11-20T01:27:09.414Z,4.20
2022-11-20T01:29:38.699Z,4.16
2022-11-20T01:32:08.063Z,4.10
2022-11-20T01:34:37.435Z,4.06
2022-11-20T01:37:06.888Z,4.01
2022-11-20T01:39:36.667Z,3.95
2022-11-20T01:42:24.596Z,3.92
2022-11-20T01:44:54.829Z,3.88
2022-11-20T01:47:36.838Z,3.84
2022-11-20T01:50:31.373Z,3.80
2022-11-20T01:53:17.028Z,3.76
2022-11-20T01:55:53.355Z,3.72
2022-11-20T01:58:27.124Z,3.68
2022-11-20T02:00:57.122Z,3.63
2022-11-20T02:03:27.277Z,3.58
2022-11-20T02:06:13.532Z,3.53
2022-11-20T02:08:43.024Z,3.50
2022-11-20T02:11:12.430Z,3.46
2022-11-20T02:13:45.929Z,3.44
2022-11-20T02:16:18.513Z,3.42
2022-11-20T02:18:48.879Z,3.39
2022-11-20T02:21:39.720Z,3.35
2022-11-20T02:24:15.894Z,3.28
2022-11-20T02:26:58.716Z,3.23
2022-11-20T02:29:51.140Z,3.20
2022-11-20T02:32:34.138Z,3.20
2022-11-20T02:35:23.292Z,3.19
2022-11-20T02:37:56.693Z,3.19
2022-11-20T02:40:26.201Z,3.16
2022-11-20T02:43:16.016Z,3.14
2022-11-20T02:45:45.319Z,3.11
2022-11-20T02:48:14.641Z,3.07
2022-11-20T02:50:44.689Z,3.05
2022-11-20T02:53:14.213Z,3.02
2022-11-20T02:55:43.682Z,3.00
2022-11-20T02:58:13.416Z,2.98
2022-11-20T03:00:42.971Z,2.96
2022-11-20T03:03:13.072Z,2.94
2022-11-20T03:05:42.972Z,2.91
2022-11-20T03:08:12.870Z,2.89
2022-11-20T03:10:43.247Z,2.87
2022-11-20T03:13:15.854Z,2.84
2022-11-20T03:15:45.195Z,2.80
2022-11-20T03:18:16.878Z,2.78
2022-11-20T03:20:46.352Z,2.76
2022-11-20T03:23:15.818Z,2.75
2022-11-20T03:25:45.113Z,2.71
2022-11-20T03:28:14.782Z,2.69
2022-11-20T03:30:44.321Z,2.67
2022-11-20T03:33:14.219Z,2.64
2022-11-20T03:35:43.770Z,2.63
2022-11-20T03:38:13.382Z,2.62
2022-11-20T03:40:49.188Z,2.61
2022-11-20T03:43:18.504Z,2.60
2022-11-20T03:45:48.123Z,2.58
2022-11-20T03:48:17.731Z,2.57
2022-11-20T03:50:49.442Z,2.56
2022-11-20T03:53:19.294Z,2.55
2022-11-20T03:55:53.071Z,2.53
2022-11-20T03:58:22.914Z,2.51
2022-11-20T04:00:52.802Z,2.49
2022-11-20T04:03:22.841Z,2.49
2022-11-20T04:05:52.481Z,2.48
2022-11-20T04:08:21.853Z,2.46
2022-11-20T04:10:51.516Z,2.43
2022-11-20T04:13:21.171Z,2.41
2022-11-20T04:15:50.565Z,2.40
2022-11-20T04:18:20.116Z,2.41
2022-11-20T04:20:49.583Z,2.40
2022-11-20T04:23:18.855Z,2.37
2022-11-20T04:25:48.537Z,2.34
2022-11-20T04:28:18.085Z,2.33
2022-11-20T04:30:47.927Z,2.32
2022-11-20T04:33:19.004Z,2.30
2022-11-20T04:35:50.175Z,2.28
2022-11-20T04:38:20.262Z,2.26
2022-11-20T04:40:49.988Z,2.23
2022-11-20T04:43:19.170Z,2.22
2022-11-20T04:45:53.801Z,2.20
2022-11-20T04:48:24.816Z,2.16
2022-11-20T04:50:55.057Z,2.14
2022-11-20T04:53:25.585Z,2.11
2022-11-20T04:56:01.245Z,2.09
2022-11-20T04:58:30.998Z,2.09
2022-11-20T05:01:20.961Z,2.08
2022-11-20T05:03:51.141Z,2.06
2022-11-20T05:06:22.877Z,2.05
2022-11-20T05:08:52.324Z,2.05
2022-11-20T05:11:25.080Z,2.04
2022-11-20T05:13:55.636Z,2.03
2022-11-20T05:16:27.144Z,2.02
2022-11-20T05:18:57.589Z,2.00
2022-11-20T05:21:27.321Z,1.98
2022-11-20T05:24:00.516Z,1.97
2022-11-20T05:26:29.952Z,1.95
2022-11-20T05:28:59.723Z,1.94
2022-11-20T05:31:30.496Z,1.93
2022-11-20T05:34:00.732Z,1.94
2022-11-20T05:36:30.717Z,1.91
2022-11-20T05:39:01.922Z,1.89
2022-11-20T05:41:31.805Z,1.88
2022-11-20T05:44:01.113Z,1.88
2022-11-20T05:46:30.604Z,1.88
2022-11-20T05:49:00.669Z,1.88
2022-11-20T05:51:30.550Z,1.86
2022-11-20T05:54:00.737Z,1.85
2022-11-20T05:56:31.141Z,1.84
2022-11-20T05:59:01.539Z,1.82
2022-11-20T06:01:31.335Z,1.79
2022-11-20T06:04:01.157Z,1.77
2022-11-20T06:06:30.706Z,1.76
2022-11-20T06:09:01.200Z,1.72
2022-11-20T06:11:31.181Z,1.68
2022-11-20T06:14:00.981Z,1.65
2022-11-20T06:16:31.787Z,1.63
2022-11-20T06:19:01.525Z,1.64
2022-11-20T06:21:31.527Z,1.62
2022-11-20T06:24:01.131Z,1.61
2022-11-20T06:26:30.909Z,1.63
2022-11-20T06:29:01.131Z,1.63
2022-11-20T06:31:31.594Z,1.64
2022-11-20T06:34:01.465Z,1.63
2022-11-20T06:36:31.496Z,1.60
2022-11-20T06:39:01.170Z,1.58
2022-11-20T06:41:30.773Z,1.54
2022-11-20T06:44:00.117Z,1.57
2022-11-20T06:46:29.300Z,1.60
2022-11-20T06:49:00.153Z,1.65
2022-11-20T06:51:29.784Z,1.67
2022-11-20T06:53:59.672Z,1.69
2022-11-20T06:56:28.754Z,1.70
2022-11-20T06:58:58.171Z,1.71
2022-11-20T07:01:28.036Z,1.71
2022-11-20T07:03:57.974Z,1.71
2022-11-20T07:06:27.527Z,1.70
2022-11-20T07:08:57.284Z,1.69
2022-11-20T07:11:26.682Z,1.68
2022-11-20T07:13:56.649Z,1.67
2022-11-20T07:16:27.390Z,1.65
2022-11-20T07:18:57.215Z,1.62
2022-11-20T07:21:26.979Z,1.60
2022-11-20T07:23:57.533Z,1.58
2022-11-20T07:26:27.365Z,1.59
2022-11-20T07:28:57.102Z,1.57
2022-11-20T07:31:27.144Z,1.54
2022-11-20T07:33:56.821Z,1.54
2022-11-20T07:36:26.282Z,1.56
2022-11-20T07:38:56.648Z,1.57
2022-11-20T07:41:26.518Z,1.59
2022-11-20T07:43:56.219Z,1.61
2022-11-20T07:46:25.926Z,1.62
2022-11-20T07:48:55.964Z,1.62
2022-11-20T07:51:26.315Z,1.61
2022-11-20T07:53:56.146Z,1.60
2022-11-20T07:56:26.667Z,1.59
2022-11-20T07:58:56.655Z,1.59
2022-11-20T08:01:26.294Z,1.60
2022-11-20T08:03:56.849Z,1.60
2022-11-20T08:06:26.832Z,1.60
2022-11-20T08:08:56.429Z,1.60
2022-11-20T08:11:44.337Z,1.60
2022-11-20T08:14:16.228Z,1.59
2022-11-20T08:16:50.609Z,1.60
2022-11-20T08:19:21.136Z,1.62
2022-11-20T08:21:53.476Z,1.64
2022-11-20T08:24:23.111Z,1.65
2022-11-20T08:26:53.493Z,1.66
2022-11-20T08:29:24.193Z,1.65
2022-11-20T08:31:54.494Z,1.62
2022-11-20T08:34:24.028Z,1.59
2022-11-20T08:36:53.388Z,1.56
2022-11-20T08:39:22.857Z,1.54
2022-11-20T08:41:55.639Z,1.52
2022-11-20T08:44:25.258Z,1.49
2022-11-20T08:49:36.932Z,1.44
2022-11-20T08:52:06.589Z,1.40
2022-11-20T08:54:38.739Z,1.37
2022-11-20T08:57:07.841Z,1.33
2022-11-20T09:00:04.424Z,1.30
2022-11-20T09:02:29.492Z,1.30
2022-11-20T09:04:58.695Z,1.31
2022-11-20T09:07:27.952Z,1.31
2022-11-20T09:10:22.653Z,1.32
2022-11-20T09:12:53.838Z,1.39
2022-11-20T09:15:23.775Z,1.44
2022-11-20T09:18:01.024Z,1.47
2022-11-20T09:20:31.100Z,1.47
2022-11-20T09:23:01.113Z,1.46
2022-11-20T09:25:30.639Z,1.44
2022-11-20T09:28:00.994Z,1.45
2022-11-20T09:30:30.310Z,1.45
2022-11-20T09:32:59.573Z,1.44
2022-11-20T09:35:29.961Z,1.45
2022-11-20T09:37:59.517Z,1.47
2022-11-20T09:40:32.507Z,1.47
2022-11-20T09:43:17.548Z,1.46
2022-11-20T09:45:50.494Z,1.42
2022-11-20T09:48:40.243Z,1.39
2022-11-20T09:51:43.461Z,1.34
2022-11-20T09:54:19.683Z,1.29
2022-11-20T09:57:05.537Z,1.27
2022-11-20T09:59:58.321Z,1.28
2022-11-20T10:02:40.940Z,1.27
2022-11-20T10:05:26.107Z,1.27
2022-11-20T10:08:25.473Z,1.27
2022-11-20T10:11:07.488Z,1.26
2022-11-20T10:13:55.533Z,1.27
2022-11-20T10:16:28.047Z,1.28
2022-11-20T10:19:09.676Z,1.27
2022-11-20T10:22:03.670Z,1.28
2022-11-20T10:25:07.266Z,1.28
2022-11-20T10:27:58.448Z,1.26
2022-11-20T10:30:28.170Z,1.21
2022-11-20T10:33:22.839Z,1.17
2022-11-20T10:36:06.811Z,1.10
2022-11-20T10:38:46.522Z,1.08
2022-11-20T10:41:33.090Z,1.07
2022-11-20T10:44:45.349Z,1.07
2022-11-20T10:47:20.418Z,1.07
2022-11-20T10:49:55.374Z,1.08
2022-11-20T10:53:01.567Z,1.08
2022-11-20T10:55:37.184Z,1.11
2022-11-20T10:58:36.910Z,1.14
2022-11-20T11:01:18.069Z,1.17
2022-11-20T11:03:47.897Z,1.18
2022-11-20T11:06:30.022Z,1.22
2022-11-20T11:09:05.300Z,1.24
2022-11-20T11:11:36.524Z,1.26
2022-11-20T11:14:17.505Z,1.28
2022-11-20T11:17:00.376Z,1.31
2022-11-20T11:19:30.157Z,1.32
2022-11-20T11:21:59.620Z,1.34
2022-11-20T11:24:42.185Z,1.37
2022-11-20T11:27:19.623Z,1.38
2022-11-20T11:29:49.636Z,1.40
2022-11-20T11:32:22.899Z,1.42
2022-11-20T11:35:09.622Z,1.43
2022-11-20T11:37:40.647Z,1.46
2022-11-20T11:40:23.902Z,1.47
2022-11-20T11:43:07.924Z,1.48
2022-11-20T11:45:37.784Z,1.49
2022-11-20T11:48:10.811Z,1.52
2022-11-20T11:50:51.608Z,1.55
2022-11-20T11:53:23.568Z,1.59
2022-11-20T11:56:16.375Z,1.62
2022-11-20T11:58:49.186Z,1.68
2022-11-20T12:01:41.034Z,1.72
2022-11-20T12:04:16.342Z,1.76
2022-11-20T12:06:51.807Z,1.80
2022-11-20T12:09:27.591Z,1.84
2022-11-20T12:12:14.028Z,1.87
2022-11-20T12:14:48.366Z,1.92
2022-11-20T12:17:18.224Z,1.95
2022-11-20T12:19:47.673Z,1.98
2022-11-20T12:22:31.682Z,2.01
2022-11-20T12:25:27.419Z,2.04
2022-11-20T12:28:35.839Z,2.08
2022-11-20T12:31:17.792Z,2.14
2022-11-20T12:33:49.679Z,2.19
2022-11-20T12:36:25.185Z,2.24
2022-11-20T12:39:04.366Z,2.28
2022-11-20T12:42:10.355Z,2.32
2022-11-20T12:45:13.766Z,2.35
2022-11-20T12:47:53.539Z,2.41
2022-11-20T12:50:26.164Z,2.46
2022-11-20T12:53:11.094Z,2.49
2022-11-20T12:56:05.002Z,2.55
2022-11-20T12:59:02.348Z,2.59
2022-11-20T13:01:44.750Z,2.64
2022-11-20T13:05:04.183Z,2.66
2022-11-20T13:07:35.495Z,2.68
2022-11-20T13:10:11.704Z,2.70
2022-11-20T13:12:59.482Z,2.72
2022-11-20T13:15:51.610Z,2.75
2022-11-20T13:18:23.899Z,2.78
2022-11-20T13:20:53.975Z,2.81
2022-11-20T13:23:30.366Z,2.82
2022-11-20T13:26:29.135Z,2.85
2022-11-20T13:29:23.193Z,2.88
2022-11-20T13:31:52.157Z,2.93
2022-11-20T13:34:31.558Z,2.95
2022-11-20T13:37:05.873Z,2.97
2022-11-20T13:39:37.983Z,2.99
2022-11-20T13:42:30.083Z,3.01
2022-11-20T13:45:11.423Z,3.05
2022-11-20T13:47:49.492Z,3.07
2022-11-20T13:50:19.089Z,3.08
2022-11-20T13:53:05.628Z,3.07
2022-11-20T13:55:57.373Z,3.06
2022-11-20T13:59:05.976Z,3.05
2022-11-20T14:01:37.408Z,3.05
2022-11-20T14:04:11.627Z,3.04
2022-11-20T14:06:49.492Z,3.01
2022-11-20T14:09:33.464Z,2.99
2022-11-20T14:12:03.802Z,2.98
2022-11-20T14:14:35.236Z,2.97
2022-11-20T14:17:20.404Z,2.98
2022-11-20T14:19:51.683Z,2.98
2022-11-20T14:22:27.826Z,2.98
2022-11-20T14:25:24.160Z,2.98
2022-11-20T14:27:58.087Z,2.99
2022-11-20T14:30:38.228Z,3.00
2022-11-20T14:33:07.839Z,2.99
2022-11-20T14:35:47.987Z,2.99
2022-11-20T14:38:23.644Z,2.98
2022-11-20T14:40:53.910Z,2.97
2022-11-20T14:43:26.949Z,2.97
2022-11-20T14:46:15.879Z,2.94
2022-11-20T14:48:55.841Z,2.92
2022-11-20T14:51:33.991Z,2.90
2022-11-20T14:54:19.049Z,2.89
2022-11-20T14:57:02.753Z,2.88
2022-11-20T14:59:34.478Z,2.87
2022-11-20T15:02:07.188Z,2.86
2022-11-20T15:04:47.387Z,2.86
2022-11-20T15:07:27.642Z,2.88
2022-11-20T15:10:11.250Z,2.88
2022-11-20T15:13:02.757Z,2.89
2022-11-20T15:15:52.194Z,2.90
2022-11-20T15:18:30.868Z,2.88
2022-11-20T15:21:03.733Z,2.86
2022-11-20T15:23:33.823Z,2.83
2022-11-20T15:26:03.629Z,2.80
2022-11-20T15:28:47.073Z,2.77
2022-11-20T15:31:18.193Z,2.75
2022-11-20T15:33:48.137Z,2.72
2022-11-20T15:36:18.029Z,2.67
2022-11-20T15:38:47.549Z,2.63
2022-11-20T15:41:16.810Z,2.59
2022-11-20T15:43:47.026Z,2.57
2022-11-20T15:46:20.192Z,2.52
2022-11-20T15:48:56.624Z,2.48
2022-11-20T15:51:38.455Z,2.44
2022-11-20T15:54:27.882Z,2.40
2022-11-20T15:56:57.396Z,2.36
2022-11-20T15:59:26.829Z,2.36
2022-11-20T16:01:56.355Z,2.34
2022-11-20T16:04:26.700Z,2.33
2022-11-20T16:06:56.521Z,2.31
2022-11-20T16:09:26.157Z,2.28
2022-11-20T16:11:56.239Z,2.24
2022-11-20T16:14:44.516Z,2.21
2022-11-20T16:17:14.154Z,2.18
2022-11-20T16:19:43.279Z,2.16
2022-11-20T16:22:13.894Z,2.14
2022-11-20T16:24:43.425Z,2.14
2022-11-20T16:27:13.115Z,2.15
2022-11-20T16:29:42.455Z,2.16
2022-11-20T16:32:12.022Z,2.17
2022-11-20T16:34:41.313Z,2.19
2022-11-20T16:37:10.643Z,2.20
2022-11-20T16:39:40.032Z,2.20
2022-11-20T16:42:09.305Z,2.20
2022-11-20T16:44:38.644Z,2.19
2022-11-20T16:47:09.152Z,2.17
2022-11-20T16:49:38.239Z,2.16
2022-11-20T16:52:07.747Z,2.16
2022-11-20T16:54:37.066Z,2.15
2022-11-20T16:57:06.827Z,2.16
2022-11-20T16:59:39.204Z,2.16
2022-11-20T17:02:09.027Z,2.17
2022-11-20T17:04:38.920Z,2.18
2022-11-20T17:07:08.628Z,2.19
2022-11-20T17:09:38.824Z,2.22
2022-11-20T17:12:08.632Z,2.25
2022-11-20T17:14:38.525Z,2.27
2022-11-20T17:17:07.782Z,2.28
2022-11-20T17:19:37.517Z,2.30
2022-11-20T17:22:06.961Z,2.34
2022-11-20T17:24:36.620Z,2.37
2022-11-20T17:27:06.650Z,2.40
2022-11-20T17:29:41.787Z,2.42
2022-11-20T17:32:11.502Z,2.47
2022-11-20T17:34:40.749Z,2.52
2022-11-20T17:37:10.364Z,2.58
2022-11-20T17:39:41.023Z,2.63
2022-11-20T17:42:28.155Z,2.70
2022-11-20T17:44:59.698Z,2.78
2022-11-20T17:47:29.379Z,2.85
2022-11-20T17:49:59.209Z,2.95
2022-11-20T17:52:28.887Z,3.03
2022-11-20T17:54:58.779Z,3.12
2022-11-20T17:57:46.988Z,3.19
2022-11-20T18:00:18.431Z,3.30
2022-11-20T18:02:47.512Z,3.38
2022-11-20T18:05:17.271Z,3.48
2022-11-20T18:07:46.988Z,3.56
2022-11-20T18:10:17.211Z,3.65
2022-11-20T18:12:47.169Z,3.73
2022-11-20T18:15:16.948Z,3.78
2022-11-20T18:17:46.909Z,3.85
2022-11-20T18:20:36.547Z,3.91
2022-11-20T18:23:06.002Z,3.97
2022-11-20T18:25:35.978Z,4.02
2022-11-20T18:28:05.710Z,4.09
2022-11-20T18:30:35.194Z,4.16
2022-11-20T18:33:04.673Z,4.23
2022-11-20T18:35:34.281Z,4.30
2022-11-20T18:38:03.860Z,4.37
2022-11-20T18:40:33.689Z,4.43
2022-11-20T18:43:20.903Z,4.48
2022-11-20T18:45:50.402Z,4.56
2022-11-20T18:48:19.604Z,4.62
2022-11-20T18:50:49.402Z,4.70
2022-11-20T18:53:18.798Z,4.77
2022-11-20T18:55:48.327Z,4.85
2022-11-20T18:58:18.012Z,4.92
2022-11-20T19:00:47.391Z,5.00
2022-11-20T19:03:18.014Z,5.08
2022-11-20T19:05:47.120Z,5.16
2022-11-20T19:08:16.303Z,5.22
2022-11-20T19:10:45.673Z,5.30
2022-11-20T19:13:17.755Z,5.37
2022-11-20T19:15:47.108Z,5.43
2022-11-20T19:18:16.717Z,5.50
2022-11-20T19:20:46.265Z,5.55
2022-11-20T19:23:15.715Z,5.61
2022-11-20T19:25:44.984Z,5.66
2022-11-20T19:28:14.960Z,5.74
2022-11-20T19:30:44.127Z,5.80
2022-11-20T19:33:13.780Z,5.87
2022-11-20T19:35:42.961Z,5.92
2022-11-20T19:38:12.621Z,6.00
2022-11-20T19:40:42.587Z,6.05
2022-11-20T19:43:11.785Z,6.09
2022-11-20T19:45:41.253Z,6.13
2022-11-20T19:48:10.565Z,6.18
2022-11-20T19:50:40.412Z,6.23
2022-11-20T19:53:09.657Z,6.29
2022-11-20T19:55:38.870Z,6.32
2022-11-20T19:58:08.617Z,6.36
2022-11-20T20:00:38.293Z,6.40
2022-11-20T20:03:08.005Z,6.44
2022-11-20T20:05:37.494Z,6.48
2022-11-20T20:08:06.977Z,6.51
2022-11-20T20:10:36.653Z,6.54
2022-11-20T20:13:06.255Z,6.57
2022-11-20T20:15:35.811Z,6.60
2022-11-20T20:18:05.588Z,6.64
2022-11-20T20:20:35.079Z,6.67
2022-11-20T20:23:08.086Z,6.71
2022-11-20T20:25:39.484Z,6.75
2022-11-20T20:28:09.035Z,6.79
2022-11-20T20:30:38.533Z,6.82
2022-11-20T20:33:08.266Z,6.86
2022-11-20T20:35:41.003Z,6.89
2022-11-20T20:38:10.980Z,6.93
2022-11-20T20:40:40.407Z,6.97
2022-11-20T20:43:09.968Z,7.01
2022-11-20T20:45:39.432Z,7.05
2022-11-20T20:48:08.648Z,7.09
2022-11-20T20:50:38.586Z,7.13
2022-11-20T20:53:12.221Z,7.16
2022-11-20T20:55:41.538Z,7.18
2022-11-20T20:58:11.110Z,7.22
2022-11-20T21:00:41.515Z,7.26
2022-11-20T21:03:11.427Z,7.31
2022-11-20T21:05:41.138Z,7.36
2022-11-20T21:08:22.770Z,7.41
2022-11-20T21:11:13.377Z,7.47
2022-11-20T21:13:43.989Z,7.53
2022-11-20T21:16:14.604Z,7.59
2022-11-20T21:18:44.231Z,7.64
2022-11-20T21:21:37.492Z,7.69
2022-11-20T21:24:07.386Z,7.75
2022-11-20T21:26:37.138Z,7.79
2022-11-20T21:29:06.731Z,7.84
2022-11-20T21:31:36.645Z,7.89
2022-11-20T21:34:08.541Z,7.94
2022-11-20T21:36:37.671Z,7.99
2022-11-20T21:39:06.808Z,8.05
2022-11-20T21:41:36.291Z,8.12
2022-11-20T21:44:30.241Z,8.18
2022-11-20T21:46:56.341Z,8.24
2022-11-20T21:49:26.035Z,8.29
2022-11-20T21:51:56.091Z,8.34
2022-11-20T21:54:26.036Z,8.38
2022-11-20T21:56:55.787Z,8.43
2022-11-20T21:59:25.548Z,8.47
2022-11-20T22:01:55.213Z,8.50
2022-11-20T22:04:25.742Z,8.53
2022-11-20T22:06:55.257Z,8.56
2022-11-20T22:09:24.638Z,8.60
2022-11-20T22:11:53.744Z,8.64
2022-11-20T22:14:23.949Z,8.67
2022-11-20T22:16:54.750Z,8.70
2022-11-20T22:19:25.772Z,8.74
2022-11-20T22:21:54.877Z,8.77
2022-11-20T22:24:25.317Z,8.80
2022-11-20T22:26:55.290Z,8.82
2022-11-20T22:29:24.733Z,8.83
2022-11-20T22:31:54.496Z,8.84
2022-11-20T22:34:24.355Z,8.84
2022-11-20T22:36:54.055Z,8.85
2022-11-20T22:39:24.109Z,8.84
2022-11-20T22:41:53.779Z,8.84
2022-11-20T22:44:23.971Z,8.84
2022-11-20T22:46:53.925Z,8.84
2022-11-20T22:49:23.366Z,8.84
2022-11-20T22:51:52.677Z,8.84
2022-11-20T22:54:22.278Z,8.84
2022-11-20T22:56:51.828Z,8.84
2022-11-20T22:59:21.225Z,8.83
2022-11-20T23:01:50.526Z,8.82
2022-11-20T23:04:20.210Z,8.81
2022-11-20T23:06:49.981Z,8.79
2022-11-20T23:09:19.112Z,8.79
2022-11-20T23:11:48.375Z,8.77
2022-11-20T23:14:19.262Z,8.76
2022-11-20T23:16:51.186Z,8.75
2022-11-20T23:19:20.938Z,8.73
2022-11-20T23:21:50.792Z,8.70
2022-11-20T23:24:20.292Z,8.68
2022-11-20T23:26:49.574Z,8.64
2022-11-20T23:29:19.187Z,8.61
2022-11-20T23:31:48.864Z,8.57
2022-11-20T23:34:18.425Z,8.54
2022-11-20T23:36:47.620Z,8.50
2022-11-20T23:39:18.082Z,8.46
2022-11-20T23:41:47.713Z,8.41
2022-11-20T23:44:17.195Z,8.37
2022-11-20T23:46:46.582Z,8.33
2022-11-20T23:49:15.870Z,8.28
2022-11-20T23:51:45.612Z,8.23
2022-11-20T23:54:15.355Z,8.15
2022-11-20T23:56:44.562Z,8.08
2022-11-20T23:59:13.889Z,8.01
